Time;durP1;ratioP1;P1;durP2;ratioP2;P2;SDS_P1;SDS_P2;PMS_P1;PMS_P2;Temp;Humidity;BMP_temperature;BMP_pressure;BME280_temperature;BME280_humidity;BME280_pressure;Samples;Min_cycle;Max_cycle;Signal;HPM_P1;HPM_P2
2023/12/29 00:02:19;;;;;;;48.50;29.10;;;;;;;-2.82;100.00;97804.41;110613;1241;60067;-80
2023/12/29 00:04:49;;;;;;;80.20;46.00;;;;;;;-2.82;100.00;97810.04;110542;1241;59657;-80
2023/12/29 00:07:18;;;;;;;101.50;58.70;;;;;;;-2.84;100.00;97810.59;110585;1245;71420;-80
2023/12/29 00:09:50;;;;;;;97.90;53.00;;;;;;;-2.91;100.00;97811.87;110607;1242;68477;-80
2023/12/29 00:12:20;;;;;;;168.70;66.70;;;;;;;-2.97;100.00;97807.17;110426;1242;69291;-79
2023/12/29 00:14:49;;;;;;;;;;;;;;;-3.06;100.00;97808.98;110558;1242;59695;-80
2023/12/29 00:17:20;;;;;;;69.50;39.60;;;;;;;-3.17;100.00;97806.89;110419;1243;59688;-80
2023/12/29 00:19:50;;;;;;;56.80;35.30;;;;;;;-3.24;100.00;97805.45;110571;1238;71237;-80
2023/12/29 00:22:21;;;;;;;;;;;;;;;-3.26;100.00;97804.10;110268;1242;69114;-80
2023/12/29 00:24:51;;;;;;;;;;;;;;;-3.25;100.00;97807.00;110428;1238;69375;-80
2023/12/29 00:27:21;;;;;;;56.70;32.20;;;;;;;-3.26;100.00;97807.19;110474;1241;59743;-80
2023/12/29 00:29:52;;;;;;;58.40;34.70;;;;;;;-3.28;100.00;97802.95;110594;1241;59743;-81
2023/12/29 00:32:22;;;;;;;;;;;;;;;-3.29;100.00;97799.70;110540;1242;71275;-80
2023/12/29 00:34:52;;;;;;;52.50;32.60;;;;;;;-3.33;100.00;97799.40;110491;1240;69239;-79
2023/12/29 00:37:23;;;;;;;57.30;32.50;;;;;;;-3.35;100.00;97805.23;110502;1238;69290;-79
2023/12/29 00:39:53;;;;;;;42.60;28.70;;;;;;;-3.35;100.00;97814.95;110432;1242;59807;-80
2023/12/29 00:42:24;;;;;;;38.30;25.50;;;;;;;-3.34;100.00;97807.77;110587;1241;59627;-80
2023/12/29 00:44:55;;;;;;;99.50;49.90;;;;;;;-3.30;100.00;97804.15;110248;1244;71351;-79
2023/12/29 00:47:25;;;;;;;98.20;49.40;;;;;;;-3.31;100.00;97806.39;110520;1241;69102;-80
2023/12/29 00:49:56;;;;;;;102.60;49.60;;;;;;;-3.34;100.00;97805.90;110228;1241;68608;-80
2023/12/29 00:52:26;;;;;;;89.40;42.80;;;;;;;-3.35;100.00;97810.67;110211;1238;59699;-79
2023/12/29 00:54:58;;;;;;;85.40;44.60;;;;;;;-3.36;100.00;97819.22;110282;1238;59844;-80
2023/12/29 00:57:28;;;;;;;185.60;60.50;;;;;;;-3.45;100.00;97824.09;110508;1239;71243;-80
2023/12/29 01:00:01;;;;;;;71.70;42.90;;;;;;;-3.57;100.00;97823.38;110479;1242;69276;-79
2023/12/29 01:02:32;;;;;;;78.90;44.00;;;;;;;-3.64;100.00;97823.77;110427;1241;68585;-80
2023/12/29 01:05:04;;;;;;;73.00;38.90;;;;;;;-3.62;100.00;97826.47;110363;1241;59697;-80
2023/12/29 01:07:34;;;;;;;75.50;41.70;;;;;;;-3.61;100.00;97825.95;110460;1241;59635;-79
2023/12/29 01:10:05;;;;;;;67.60;37.80;;;;;;;-3.62;100.00;97825.11;110396;1241;71115;-80
2023/12/29 01:12:35;;;;;;;65.00;37.40;;;;;;;-3.65;100.00;97827.71;110412;1242;69214;-80
2023/12/29 01:15:06;;;;;;;84.10;42.60;;;;;;;-3.70;100.00;97825.54;110320;1241;68547;-80
2023/12/29 01:17:37;;;;;;;52.40;32.20;;;;;;;-3.75;100.00;97823.20;110336;1239;59751;-79
2023/12/29 01:20:08;;;;;;;70.60;36.30;;;;;;;-3.75;100.00;97820.82;110393;1241;59672;-80
2023/12/29 01:22:39;;;;;;;99.80;46.70;;;;;;;-3.72;100.00;97823.85;110451;1240;71388;-80
2023/12/29 01:25:10;;;;;;;66.40;39.60;;;;;;;-3.71;100.00;97824.16;110428;1241;68402;-80
2023/12/29 01:27:43;;;;;;;54.90;34.70;;;;;;;-3.70;100.00;97821.10;110184;1244;69221;-79
2023/12/29 01:30:13;;;;;;;76.80;36.80;;;;;;;-3.68;100.00;97822.11;110366;1241;59696;-79
2023/12/29 01:32:45;;;;;;;57.90;32.00;;;;;;;-3.68;100.00;97819.21;110230;1245;59733;-80
2023/12/29 01:35:17;;;;;;;50.20;27.30;;;;;;;-3.65;100.00;97820.56;110359;1241;70646;-79
2023/12/29 01:37:48;;;;;;;41.60;26.30;;;;;;;-3.62;100.00;97824.95;110359;1241;68286;-79
2023/12/29 01:40:19;;;;;;;52.90;31.10;;;;;;;-3.60;100.00;97821.87;110370;1242;69288;-79
2023/12/29 01:42:51;;;;;;;53.00;30.20;;;;;;;-3.55;100.00;97823.02;110172;1244;59734;-80
2023/12/29 01:45:25;;;;;;;43.50;26.40;;;;;;;-3.50;100.00;97825.17;110358;1242;59653;-79
2023/12/29 01:47:56;;;;;;;41.50;25.10;;;;;;;-3.44;100.00;97824.94;110408;1241;71060;-79
2023/12/29 01:50:28;;;;;;;40.20;25.40;;;;;;;-3.41;100.00;97824.22;110386;1240;68624;-79
2023/12/29 01:53:01;;;;;;;46.00;28.50;;;;;;;-3.37;100.00;97824.69;110358;1241;69104;-80
2023/12/29 01:55:33;;;;;;;48.30;28.50;;;;;;;-3.38;100.00;97815.31;110414;1241;59689;-80
2023/12/29 01:58:04;;;;;;;49.00;30.20;;;;;;;-3.38;100.00;97814.46;110193;1244;59650;-79
2023/12/29 02:00:36;;;;;;;49.60;28.20;;;;;;;-3.39;100.00;97810.73;110234;1243;71590;-79
2023/12/29 02:03:07;;;;;;;41.70;24.60;;;;;;;-3.39;100.00;97809.02;110466;1241;69274;-79
2023/12/29 02:05:41;;;;;;;39.40;21.90;;;;;;;-3.38;100.00;97810.72;110251;1242;69219;-79
2023/12/29 02:08:13;;;;;;;47.80;27.00;;;;;;;-3.38;100.00;97806.29;110494;1243;59692;-79
2023/12/29 02:10:47;;;;;;;35.60;21.00;;;;;;;-3.38;100.00;97799.13;110479;1241;59673;-79
2023/12/29 02:13:17;;;;;;;39.10;23.70;;;;;;;-3.37;100.00;97801.35;110401;1241;70520;-80
2023/12/29 02:15:53;;;;;;;46.40;26.70;;;;;;;-3.35;100.00;97798.23;110256;1242;68586;-79
2023/12/29 02:18:27;;;;;;;43.00;28.20;;;;;;;-3.33;100.00;97796.69;110393;1241;69338;-79
2023/12/29 02:20:57;;;;;;;46.50;27.00;;;;;;;-3.31;100.00;97799.23;110400;1242;59665;-80
2023/12/29 02:23:29;;;;;;;43.60;23.60;;;;;;;-3.30;100.00;97799.40;110228;1238;59762;-80
2023/12/29 02:26:07;;;;;;;36.20;23.50;;;;;;;-3.30;100.00;97793.41;110373;1242;71479;-79
2023/12/29 02:28:44;;;;;;;36.60;22.20;;;;;;;-3.30;100.00;97795.13;110389;1241;69813;-80
2023/12/29 02:31:19;;;;;;;38.50;21.50;;;;;;;-3.32;100.00;97797.89;110222;1238;69857;-80
2023/12/29 02:33:51;;;;;;;37.80;20.50;;;;;;;-3.35;100.00;97794.33;110496;1238;59751;-79
2023/12/29 02:36:24;;;;;;;36.50;22.20;;;;;;;-3.38;100.00;97789.09;110395;1241;59684;-79
2023/12/29 02:38:54;;;;;;;38.40;23.90;;;;;;;-3.40;100.00;97785.70;110459;1241;71452;-79
2023/12/29 02:41:25;;;;;;;37.40;22.70;;;;;;;-3.42;100.00;97792.02;110236;1238;69222;-79
2023/12/29 02:43:59;;;;;;;35.70;22.50;;;;;;;-3.45;100.00;97787.80;110181;1238;69680;-80
2023/12/29 02:46:30;;;;;;;38.10;23.80;;;;;;;-3.46;100.00;97787.30;110406;1241;59742;-80
2023/12/29 02:49:01;;;;;;;38.00;24.90;;;;;;;-3.45;100.00;97782.02;110407;1241;59622;-80
2023/12/29 02:51:36;;;;;;;27.60;19.40;;;;;;;-3.44;100.00;97772.79;110358;1240;71407;-79
2023/12/29 02:54:07;;;;;;;29.10;20.20;;;;;;;-3.43;100.00;97777.54;110516;1238;68551;-79
2023/12/29 02:56:38;;;;;;;32.20;19.90;;;;;;;-3.43;100.00;97779.58;110404;1238;69138;-78
2023/12/29 02:59:11;;;;;;;35.60;22.30;;;;;;;-3.44;100.00;97787.77;110363;1241;59689;-80
2023/12/29 03:01:43;;;;;;;33.90;21.60;;;;;;;-3.46;100.00;97787.13;110354;1241;59691;-79
2023/12/29 03:04:14;;;;;;;35.20;22.00;;;;;;;-3.45;100.00;97783.88;110352;1241;70542;-79
2023/12/29 03:06:45;;;;;;;33.40;21.90;;;;;;;-3.46;100.00;97787.46;110338;1240;69312;-78
2023/12/29 03:09:16;;;;;;;40.30;22.10;;;;;;;-3.47;100.00;97779.80;110155;1244;69106;-80
2023/12/29 03:11:48;;;;;;;29.50;19.30;;;;;;;-3.48;100.00;97784.92;110318;1241;59689;-80
2023/12/29 03:14:21;;;;;;;40.80;23.80;;;;;;;-3.48;100.00;97784.59;110215;1241;59728;-79
2023/12/29 03:16:51;;;;;;;31.60;20.40;;;;;;;-3.46;100.00;97785.61;110337;1242;69545;-79
2023/12/29 03:19:22;;;;;;;38.20;20.80;;;;;;;-3.46;100.00;97787.46;110324;1241;68522;-79
2023/12/29 03:21:54;;;;;;;29.00;17.50;;;;;;;-3.43;100.00;97783.34;110323;1240;68514;-78
2023/12/29 03:24:26;;;;;;;28.90;20.10;;;;;;;-3.43;100.00;97789.81;110334;1241;59677;-79
2023/12/29 03:26:57;;;;;;;30.30;21.60;;;;;;;-3.45;100.00;97796.31;110282;1242;59672;-80
2023/12/29 03:29:28;;;;;;;39.50;23.70;;;;;;;-3.48;100.00;97796.35;110415;1241;71421;-79
2023/12/29 03:31:59;;;;;;;31.40;18.40;;;;;;;-3.53;100.00;97798.61;110439;1241;69116;-80
2023/12/29 03:34:30;;;;;;;34.40;20.10;;;;;;;-3.58;100.00;97807.19;110238;1241;69868;-79
2023/12/29 03:37:01;;;;;;;48.40;24.80;;;;;;;-3.62;100.00;97809.77;110321;1241;59775;-79
2023/12/29 03:39:35;;;;;;;36.90;23.20;;;;;;;-3.67;100.00;97809.66;110360;1241;59663;-79
2023/12/29 03:42:06;;;;;;;40.20;23.20;;;;;;;-3.71;100.00;97811.06;110317;1242;70471;-80
2023/12/29 03:44:37;;;;;;;36.90;21.10;;;;;;;-3.75;100.00;97810.76;110327;1241;69299;-78
2023/12/29 03:47:10;;;;;;;29.90;19.30;;;;;;;-3.74;100.00;97811.96;110155;1243;68618;-79
2023/12/29 03:49:40;;;;;;;28.70;20.30;;;;;;;-3.74;100.00;97808.89;110302;1240;59870;-79
2023/12/29 03:52:10;;;;;;;33.20;20.20;;;;;;;-3.71;100.00;97807.15;110310;1240;59699;-79
2023/12/29 03:54:40;;;;;;;31.90;17.80;;;;;;;-3.67;100.00;97802.34;110197;1242;71977;-78
2023/12/29 03:57:12;;;;;;;33.00;19.60;;;;;;;-3.66;100.00;97808.11;110210;1241;69060;-78
2023/12/29 03:59:42;;;;;;;29.90;18.80;;;;;;;-3.67;100.00;97804.71;110307;1241;69278;-79
2023/12/29 04:02:12;;;;;;;29.40;19.80;;;;;;;-3.68;100.00;97801.33;110430;1247;59727;-79
2023/12/29 04:04:41;;;;;;;33.30;19.10;;;;;;;-3.67;100.00;97800.30;110267;1242;59682;-79
2023/12/29 04:07:13;;;;;;;32.40;19.90;;;;;;;-3.68;100.00;97795.71;110395;1247;71835;-79
2023/12/29 04:09:43;;;;;;;31.30;17.70;;;;;;;-3.67;100.00;97796.20;110404;1241;68251;-78
2023/12/29 04:12:14;;;;;;;30.90;17.30;;;;;;;-3.67;100.00;97798.25;110525;1238;69313;-79
2023/12/29 04:14:45;;;;;;;33.00;20.00;;;;;;;-3.69;100.00;97798.27;110509;1245;59750;-78
2023/12/29 04:17:16;;;;;;;36.80;21.80;;;;;;;-3.69;100.00;97799.47;110469;1244;59657;-79
2023/12/29 04:19:47;;;;;;;38.40;22.50;;;;;;;-3.71;100.00;97798.45;110535;1238;71400;-79
2023/12/29 04:22:17;;;;;;;43.40;22.90;;;;;;;-3.72;100.00;97797.62;110559;1238;69572;-79
2023/12/29 04:24:48;;;;;;;32.60;20.80;;;;;;;-3.75;100.00;97792.70;110655;1238;68680;-79
2023/12/29 04:27:19;;;;;;;31.20;20.70;;;;;;;-3.75;100.00;97794.24;110902;1241;59802;-79
2023/12/29 04:29:49;;;;;;;40.70;23.00;;;;;;;-3.76;100.00;97798.52;110920;1241;59729;-79
2023/12/29 04:32:19;;;;;;;34.00;21.50;;;;;;;-3.77;100.00;97796.48;110820;1238;71418;-79
2023/12/29 04:34:50;;;;;;;43.00;22.90;;;;;;;-3.79;100.00;97797.35;110804;1242;69264;-78
2023/12/29 04:37:20;;;;;;;33.00;19.40;;;;;;;-3.78;100.00;97797.36;110318;1242;69373;-79
2023/12/29 04:39:50;;;;;;;33.70;21.60;;;;;;;-3.78;100.00;97796.49;110322;1242;59678;-80
2023/12/29 04:42:21;;;;;;;37.00;20.90;;;;;;;-3.74;100.00;97793.23;110608;1238;59736;-79
2023/12/29 04:44:50;;;;;;;32.20;21.00;;;;;;;-3.74;100.00;97794.92;110451;1238;72446;-79
2023/12/29 04:47:20;;;;;;;38.80;21.30;;;;;;;-3.75;100.00;97796.28;110538;1240;69359;-79
2023/12/29 04:49:50;;;;;;;35.40;20.90;;;;;;;-3.74;100.00;97795.44;110535;1241;70431;-78
2023/12/29 04:52:20;;;;;;;32.20;19.80;;;;;;;-3.75;100.00;97797.30;110516;1238;59675;-79
2023/12/29 04:54:50;;;;;;;32.60;21.30;;;;;;;-3.77;100.00;97799.37;110515;1240;59687;-80
2023/12/29 04:57:21;;;;;;;36.40;21.90;;;;;;;-3.79;100.00;97802.12;110569;1240;71299;-80
2023/12/29 04:59:52;;;;;;;30.30;20.20;;;;;;;-3.82;100.00;97803.67;110267;1242;69294;-79
2023/12/29 05:02:21;;;;;;;29.70;18.80;;;;;;;-3.82;100.00;97809.65;110394;1240;69309;-79
2023/12/29 05:04:51;;;;;;;30.70;20.40;;;;;;;-3.80;100.00;97811.50;110502;1238;59733;-79
2023/12/29 05:07:20;;;;;;;29.50;18.90;;;;;;;-3.80;100.00;97817.63;110469;1243;59671;-80
2023/12/29 05:09:52;;;;;;;;;;;;;;;-3.82;100.00;97816.63;110462;1240;71261;-79
2023/12/29 05:12:22;;;;;;;29.00;19.90;;;;;;;-3.86;100.00;97814.27;110582;1240;69218;-80
2023/12/29 05:14:51;;;;;;;26.70;18.30;;;;;;;-3.91;100.00;97815.34;110445;1240;69670;-79
2023/12/29 05:17:21;;;;;;;28.90;19.40;;;;;;;-3.92;100.00;97816.38;110475;1238;59664;-79
2023/12/29 05:19:52;;;;;;;31.90;19.20;;;;;;;-3.95;100.00;97819.63;110527;1239;59737;-80
2023/12/29 05:22:23;;;;;;;39.50;21.20;;;;;;;-3.95;100.00;97818.78;110738;1241;70670;-79
2023/12/29 05:24:57;;;;;;;32.70;20.70;;;;;;;-3.96;100.00;97818.45;110208;1244;69318;-79
2023/12/29 05:27:28;;;;;;;42.10;24.30;;;;;;;-3.99;100.00;97815.58;110399;1244;69306;-78
2023/12/29 05:29:58;;;;;;;37.50;21.90;;;;;;;-4.00;100.00;97815.77;110405;1241;59689;-79
2023/12/29 05:32:28;;;;;;;34.50;19.60;;;;;;;-4.03;100.00;97819.52;110427;1240;59627;-79
2023/12/29 05:34:59;;;;;;;32.60;19.40;;;;;;;-4.03;100.00;97814.92;110495;1240;71741;-79
2023/12/29 05:37:29;;;;;;;34.10;18.40;;;;;;;-4.05;100.00;97815.47;110270;1242;68592;-79
2023/12/29 05:39:59;;;;;;;32.00;19.00;;;;;;;-4.08;100.00;97816.16;110384;1238;68379;-78
2023/12/29 05:42:29;;;;;;;32.60;19.90;;;;;;;-4.08;100.00;97811.91;110400;1241;59746;-79
2023/12/29 05:45:01;;;;;;;28.90;16.70;;;;;;;-4.10;100.00;97814.15;110448;1238;59665;-79
2023/12/29 05:47:32;;;;;;;29.30;18.00;;;;;;;-4.12;100.00;97813.81;110452;1241;71481;-79
2023/12/29 05:50:03;;;;;;;27.80;16.70;;;;;;;-4.13;100.00;97818.08;110516;1241;69103;-79
2023/12/29 05:52:33;;;;;;;27.00;17.40;;;;;;;-4.15;100.00;97815.20;110472;1247;69055;-79
2023/12/29 05:55:03;;;;;;;26.90;18.80;;;;;;;-4.17;100.00;97814.53;110513;1241;59670;-79
2023/12/29 05:57:34;;;;;;;28.90;16.50;;;;;;;-4.18;100.00;97815.73;110488;1242;59743;-79
2023/12/29 06:00:04;;;;;;;34.90;24.70;;;;;;;-4.22;100.00;97820.70;110444;1248;71380;-79
2023/12/29 06:02:43;;;;;;;27.30;16.90;;;;;;;-4.25;100.00;97827.55;110321;1241;69223;-79
2023/12/29 06:05:13;;;;;;;37.70;21.80;;;;;;;-4.29;100.00;97825.19;110332;1241;69375;-80
2023/12/29 06:07:43;;;;;;;33.70;21.20;;;;;;;-4.29;100.00;97823.83;110387;1241;59763;-79
2023/12/29 06:10:13;;;;;;;33.80;21.60;;;;;;;-4.29;100.00;97823.48;110329;1242;59705;-79
2023/12/29 06:12:44;;;;;;;38.20;23.90;;;;;;;-4.29;100.00;97820.08;110337;1241;70444;-79
2023/12/29 06:15:16;;;;;;;34.80;23.10;;;;;;;-4.29;100.00;97822.45;110151;1241;69618;-80
2023/12/29 06:17:46;;;;;;;29.40;19.80;;;;;;;-4.28;100.00;97826.38;110211;1244;69305;-79
2023/12/29 06:20:16;;;;;;;33.90;22.20;;;;;;;-4.28;100.00;97826.54;110343;1241;59749;-79
2023/12/29 06:22:47;;;;;;;30.80;18.30;;;;;;;-4.26;100.00;97834.86;110403;1241;59700;-78
2023/12/29 06:25:17;;;;;;;37.00;21.80;;;;;;;-4.24;100.00;97834.16;110407;1241;71404;-78
2023/12/29 06:27:48;;;;;;;;;;;;;;;-4.19;100.00;97836.67;110437;1241;68488;-79
2023/12/29 06:30:18;;;;;;;35.50;21.80;;;;;;;-4.14;100.00;97837.66;110420;1241;69313;-79
2023/12/29 06:32:47;;;;;;;39.80;25.80;;;;;;;-4.09;100.00;97835.59;110379;1241;59750;-79
2023/12/29 06:35:18;;;;;;;30.80;18.90;;;;;;;-4.03;100.00;97827.88;110355;1241;59677;-79
2023/12/29 06:37:49;;;;;;;36.40;21.90;;;;;;;-3.98;100.00;97829.54;110360;1242;71166;-79
2023/12/29 06:40:19;;;;;;;40.70;24.60;;;;;;;-3.89;100.00;97828.61;110337;1241;68990;-79
2023/12/29 06:42:48;;;;;;;42.00;24.90;;;;;;;-3.85;100.00;97828.75;110434;1241;68894;-79
2023/12/29 06:45:18;;;;;;;42.20;24.70;;;;;;;-3.78;100.00;97828.68;110300;1241;59700;-79
2023/12/29 06:47:49;;;;;;;40.00;24.50;;;;;;;-3.74;100.00;97833.07;110346;1242;60027;-78
2023/12/29 06:50:19;;;;;;;43.90;25.60;;;;;;;-3.67;100.00;97835.38;110170;1245;70829;-79
2023/12/29 06:52:49;;;;;;;38.20;23.20;;;;;;;-3.57;100.00;97842.79;110189;1243;68499;-79
2023/12/29 06:55:19;;;;;;;42.50;24.90;;;;;;;-3.43;100.00;97846.73;110336;1240;69369;-78
2023/12/29 06:57:49;;;;;;;41.00;25.60;;;;;;;-3.30;100.00;97846.77;110315;1241;59756;-79
2023/12/29 07:00:18;;;;;;;41.50;26.40;;;;;;;-3.21;100.00;97845.13;110346;1241;59698;-79
2023/12/29 07:02:48;;;;;;;47.40;31.30;;;;;;;-3.08;100.00;97838.85;110324;1241;71482;-79
2023/12/29 07:05:17;;;;;;;56.10;36.00;;;;;;;-2.97;100.00;97841.61;110330;1241;68417;-79
2023/12/29 07:07:47;;;;;;;52.10;30.60;;;;;;;-2.86;100.00;97845.41;110331;1241;69894;-79
2023/12/29 07:10:16;;;;;;;64.70;40.40;;;;;;;-2.71;100.00;97847.44;110316;1242;59693;-79
2023/12/29 07:12:46;;;;;;;58.70;36.90;;;;;;;-2.50;100.00;97843.73;110295;1241;59687;-79
2023/12/29 07:15:16;;;;;;;73.10;47.10;;;;;;;-2.27;100.00;97848.17;110190;1240;70548;-79
2023/12/29 07:17:46;;;;;;;67.20;42.20;;;;;;;-2.13;100.00;97845.41;110353;1241;68432;-79
2023/12/29 07:20:16;;;;;;;68.80;41.10;;;;;;;-2.05;100.00;97851.77;110362;1242;68497;-78
2023/12/29 07:22:45;;;;;;;58.20;39.40;;;;;;;-1.99;100.00;97852.02;110379;1241;59708;-77
2023/12/29 07:25:15;;;;;;;66.90;39.40;;;;;;;-1.84;100.00;97849.73;110370;1241;59672;-79
2023/12/29 07:27:44;;;;;;;65.90;39.20;;;;;;;-1.73;100.00;97848.20;110398;1241;70897;-79
2023/12/29 07:30:14;;;;;;;67.20;39.30;;;;;;;-1.69;100.00;97845.05;110361;1241;69107;-79
2023/12/29 07:32:43;;;;;;;63.10;39.50;;;;;;;-1.62;100.00;97849.38;110358;1241;68561;-79
2023/12/29 07:35:16;;;;;;;62.60;40.10;;;;;;;-1.53;100.00;97849.21;110293;1241;59660;-78
2023/12/29 07:37:47;;;;;;;61.40;39.10;;;;;;;-1.28;100.00;97843.11;110291;1242;60091;-79
2023/12/29 07:40:17;;;;;;;56.20;37.70;;;;;;;-1.00;100.00;97842.91;110305;1241;71935;-78
2023/12/29 07:42:50;;;;;;;70.80;45.40;;;;;;;-0.77;100.00;97835.27;110188;1243;69208;-79
2023/12/29 07:45:19;;;;;;;66.50;43.10;;;;;;;-0.70;100.00;97835.46;110389;1241;69238;-78
2023/12/29 07:47:49;;;;;;;66.50;42.50;;;;;;;-0.73;100.00;97836.38;110266;1241;59731;-78
2023/12/29 07:50:19;;;;;;;71.00;46.60;;;;;;;-0.71;100.00;97834.80;110298;1243;59610;-78
2023/12/29 07:52:48;;;;;;;70.50;46.30;;;;;;;-0.71;100.00;97837.01;110317;1241;70702;-78
2023/12/29 07:55:17;;;;;;;77.30;50.60;;;;;;;-0.55;100.00;97837.03;110297;1240;69633;-78
2023/12/29 07:57:46;;;;;;;65.90;44.00;;;;;;;-0.27;100.00;97844.96;110303;1240;69261;-78
2023/12/29 08:00:17;;;;;;;69.10;44.80;;;;;;;0.02;100.00;97844.80;110356;1242;59753;-79
2023/12/29 08:02:47;;;;;;;77.00;47.00;;;;;;;0.38;100.00;97850.44;110379;1241;59639;-79
2023/12/29 08:05:18;;;;;;;63.20;42.80;;;;;;;0.66;100.00;97848.02;110383;1241;70649;-79
2023/12/29 08:07:47;;;;;;;64.00;44.40;;;;;;;0.85;100.00;97844.23;110551;1238;69678;-79
2023/12/29 08:10:16;;;;;;;62.70;43.40;;;;;;;1.37;100.00;97845.17;110365;1238;68667;-79
2023/12/29 08:12:45;;;;;;;60.00;41.60;;;;;;;1.61;100.00;97850.14;110414;1243;59733;-79
2023/12/29 08:15:15;;;;;;;54.90;38.80;;;;;;;1.92;98.98;97851.77;110434;1238;59702;-80
2023/12/29 08:17:47;;;;;;;53.00;36.20;;;;;;;2.36;96.17;97851.91;110403;1242;71951;-80
2023/12/29 08:20:17;;;;;;;47.40;35.80;;;;;;;2.99;93.75;97854.40;110499;1238;69778;-80
2023/12/29 08:22:46;;;;;;;50.00;36.10;;;;;;;3.52;91.66;97850.39;110366;1243;69294;-80
2023/12/29 08:25:16;;;;;;;48.70;37.00;;;;;;;3.87;89.65;97852.68;110397;1241;59688;-80
2023/12/29 08:27:45;;;;;;;48.70;37.20;;;;;;;3.91;88.92;97853.05;110401;1238;59644;-80
2023/12/29 08:30:14;;;;;;;49.30;37.60;;;;;;;3.76;88.98;97856.38;110411;1238;71282;-78
2023/12/29 08:32:43;;;;;;;46.50;35.60;;;;;;;3.88;90.07;97858.36;110384;1242;68434;-79
2023/12/29 08:35:13;;;;;;;45.20;36.50;;;;;;;4.33;88.41;97859.14;110401;1245;69091;-79
2023/12/29 08:37:42;;;;;;;47.50;35.60;;;;;;;4.90;85.68;97851.21;110297;1240;60191;-79
2023/12/29 08:40:12;;;;;;;46.30;35.40;;;;;;;5.49;82.84;97848.11;110353;1238;59671;-79
2023/12/29 08:42:41;;;;;;;38.50;32.10;;;;;;;6.49;80.65;97846.34;110580;1238;71663;-80
2023/12/29 08:45:10;;;;;;;45.70;34.90;;;;;;;7.23;74.84;97844.30;110521;1239;68216;-80
2023/12/29 08:47:40;;;;;;;46.00;35.60;;;;;;;7.53;72.08;97840.63;110510;1242;68882;-81
2023/12/29 08:50:09;;;;;;;43.40;36.00;;;;;;;7.80;71.08;97841.94;110622;1241;59686;-80
2023/12/29 08:52:38;;;;;;;41.60;33.80;;;;;;;7.76;74.64;97842.86;110566;1240;59745;-81
2023/12/29 08:55:09;;;;;;;41.20;35.90;;;;;;;7.99;72.54;97843.88;110517;1241;71626;-80
2023/12/29 08:57:39;;;;;;;48.10;39.90;;;;;;;8.06;72.79;97845.89;110300;1242;68704;-80
2023/12/29 09:00:09;;;;;;;47.10;37.40;;;;;;;8.60;74.25;97841.45;110540;1239;69090;-81
2023/12/29 09:02:38;;;;;;;40.50;32.00;;;;;;;8.36;70.53;97837.80;110431;1242;59750;-80
2023/12/29 09:05:08;;;;;;;49.00;41.80;;;;;;;8.54;73.39;97834.49;110408;1238;59673;-81
2023/12/29 09:07:37;;;;;;;45.90;39.30;;;;;;;9.17;72.88;97829.75;110441;1238;71387;-80
2023/12/29 09:10:08;;;;;;;46.00;38.40;;;;;;;9.02;69.60;97828.02;110390;1239;69206;-80
2023/12/29 09:12:38;;;;;;;42.30;35.50;;;;;;;9.15;68.02;97823.77;110377;1242;69885;-80
2023/12/29 09:15:08;;;;;;;44.90;38.10;;;;;;;9.51;66.55;97818.98;110415;1241;59670;-80
2023/12/29 09:17:37;;;;;;;39.60;34.70;;;;;;;10.11;64.10;97819.88;110535;1238;59730;-80
2023/12/29 09:20:07;;;;;;;36.80;31.50;;;;;;;10.22;61.99;97819.51;110517;1238;71952;-82
2023/12/29 09:22:40;;;;;;;36.90;30.80;;;;;;;11.18;64.00;97811.52;110475;1240;69585;-81
2023/12/29 09:25:09;;;;;;;30.20;26.10;;;;;;;11.55;61.52;97807.42;110268;1238;68994;-81
2023/12/29 09:27:38;;;;;;;25.30;22.30;;;;;;;11.89;60.99;97805.71;110614;1241;59727;-80
2023/12/29 09:30:08;;;;;;;27.80;23.20;;;;;;;11.71;56.04;97795.96;110491;1241;59747;-81
2023/12/29 09:32:37;;;;;;;28.50;25.50;;;;;;;11.93;56.57;97801.23;110533;1241;71332;-81
2023/12/29 09:35:07;;;;;;;24.30;21.70;;;;;;;11.24;58.07;97797.21;110405;1240;69828;-81
2023/12/29 09:37:36;;;;;;;23.30;20.90;;;;;;;11.75;56.29;97799.91;110380;1240;68366;-80
2023/12/29 09:40:06;;;;;;;21.80;19.20;;;;;;;12.24;54.67;97798.43;110362;1241;59672;-80
2023/12/29 09:42:37;;;;;;;19.70;17.40;;;;;;;12.54;54.10;97793.30;110494;1241;59691;-80
2023/12/29 09:45:11;;;;;;;18.40;16.40;;;;;;;13.19;55.03;97793.79;110388;1238;71992;-81
2023/12/29 09:47:42;;;;;;;17.90;16.00;;;;;;;13.66;50.01;97789.39;110482;1238;69807;-80
2023/12/29 09:50:13;;;;;;;16.80;15.00;;;;;;;14.37;52.68;97789.47;110481;1238;69280;-79
2023/12/29 09:52:43;;;;;;;15.20;13.50;;;;;;;14.64;50.07;97788.64;110327;1238;59679;-81
2023/12/29 09:55:12;;;;;;;13.00;11.40;;;;;;;15.33;50.07;97792.09;110386;1241;59680;-80
2023/12/29 09:57:42;;;;;;;10.70;9.50;;;;;;;15.76;45.99;97791.86;110382;1238;71321;-81
2023/12/29 10:00:12;;;;;;;16.70;14.10;;;;;;;14.96;45.63;97778.35;110448;1240;69009;-80
2023/12/29 10:02:41;;;;;;;15.10;13.50;;;;;;;14.69;47.23;97778.77;110355;1240;69870;-81
2023/12/29 10:05:13;;;;;;;15.90;14.00;;;;;;;14.94;47.09;97776.34;110400;1241;59663;-80
2023/12/29 10:07:46;;;;;;;15.70;14.00;;;;;;;15.22;45.48;97764.03;110477;1242;59647;-80
2023/12/29 10:10:19;;;;;;;14.50;12.90;;;;;;;14.90;45.77;97763.09;110375;1241;71951;-80
2023/12/29 10:12:49;;;;;;;13.80;12.40;;;;;;;15.39;47.10;97764.69;110455;1241;69317;-82
2023/12/29 10:15:37;;;;;;;14.00;12.50;;;;;;;15.31;47.45;97764.86;110239;1242;69291;-80
2023/12/29 10:18:41;;;;;;;16.60;14.80;;;;;;;16.11;47.39;97763.83;110412;1239;59666;-81
2023/12/29 10:21:15;;;;;;;14.10;12.60;;;;;;;16.18;45.21;97758.92;110476;1240;59689;-81
2023/12/29 10:24:25;;;;;;;15.30;13.30;;;;;;;16.64;45.38;97752.16;110416;1238;71398;-80
2023/12/29 10:26:55;;;;;;;13.00;11.30;;;;;;;15.30;43.99;97753.16;110399;1240;69336;-81
2023/12/29 10:29:27;;;;;;;12.70;11.30;;;;;;;15.54;44.47;97752.48;110353;1240;69120;-80
2023/12/29 10:31:56;;;;;;;13.10;11.10;;;;;;;15.57;44.15;97754.50;110376;1241;59734;-80
2023/12/29 10:34:30;;;;;;;14.30;12.80;;;;;;;15.99;44.20;97755.08;110483;1241;59757;-80
2023/12/29 10:37:01;;;;;;;13.80;12.30;;;;;;;15.52;44.21;97752.15;110393;1238;71941;-82
2023/12/29 10:39:30;;;;;;;12.70;11.10;;;;;;;16.01;43.77;97754.88;110388;1240;69817;-82
2023/12/29 10:42:08;;;;;;;12.70;11.50;;;;;;;16.41;43.02;97753.35;110574;1238;69927;-80
2023/12/29 10:44:39;;;;;;;13.60;12.10;;;;;;;16.79;43.07;97746.88;110545;1241;59751;-80
2023/12/29 10:47:10;;;;;;;12.80;11.40;;;;;;;16.70;42.36;97741.36;110378;1238;60210;-80
2023/12/29 10:49:40;;;;;;;12.50;11.20;;;;;;;16.53;42.56;97737.81;110381;1240;70674;-81
2023/12/29 10:52:14;;;;;;;12.00;10.60;;;;;;;17.32;41.20;97729.20;110360;1239;69882;-82
2023/12/29 10:54:44;;;;;;;13.20;11.90;;;;;;;17.20;41.79;97715.34;110406;1242;69841;-81
2023/12/29 10:57:13;;;;;;;13.30;11.60;;;;;;;18.51;42.16;97707.02;110423;1241;59738;-81
2023/12/29 10:59:43;;;;;;;12.20;10.20;;;;;;;18.92;41.23;97705.34;110438;1238;59654;-81
2023/12/29 11:02:15;;;;;;;12.10;10.30;;;;;;;18.65;38.73;97707.93;110484;1238;71618;-80
2023/12/29 11:04:45;;;;;;;10.60;9.50;;;;;;;17.74;40.10;97708.48;110090;1242;496969;-80
2023/12/29 11:07:14;;;;;;;11.90;10.40;;;;;;;18.21;39.89;97709.88;110471;1244;70289;-81
2023/12/29 11:09:44;;;;;;;12.60;11.20;;;;;;;18.92;40.78;97708.39;110338;1241;59686;-80
2023/12/29 11:12:14;;;;;;;10.60;9.40;;;;;;;19.65;39.92;97713.34;110402;1241;59744;-80
2023/12/29 11:14:46;;;;;;;11.70;9.70;;;;;;;18.90;37.78;97713.52;110398;1241;70486;-80
2023/12/29 11:17:17;;;;;;;11.50;9.10;;;;;;;19.12;38.96;97707.02;110366;1241;69713;-80
2023/12/29 11:19:48;;;;;;;11.40;10.20;;;;;;;19.25;38.59;97704.92;110451;1238;69094;-82
2023/12/29 11:22:18;;;;;;;10.40;9.30;;;;;;;19.29;39.11;97700.71;110463;1238;59699;-81
2023/12/29 11:24:48;;;;;;;10.40;9.20;;;;;;;19.60;38.12;97693.95;110486;1238;59590;-81